sensor_id;sensor_type;location;lat;lon;timestamp;P1;durP1;ratioP1;P2;durP2;ratioP2
19193;SDS011;9729;52.296;13.260;2023-03-01T00:02:11;21.13;;;9.20;;
19193;SDS011;9729;52.296;13.260;2023-03-01T00:04:37;24.27;;;9.93;;
19193;SDS011;9729;52.296;13.260;2023-03-01T00:07:05;23.57;;;9.10;;
19193;SDS011;9729;52.296;13.260;2023-03-01T00:09:31;20.13;;;9.27;;
19193;SDS011;9729;52.296;13.260;2023-03-01T00:11:59;34.13;;;10.20;;
19193;SDS011;9729;52.296;13.260;2023-03-01T00:14:25;30.30;;;10.13;;
19193;SDS011;9729;52.296;13.260;2023-03-01T00:16:52;23.40;;;10.27;;
19193;SDS011;9729;52.296;13.260;2023-03-01T00:19:19;20.10;;;10.23;;
19193;SDS011;9729;52.296;13.260;2023-03-01T00:21:47;27.47;;;10.40;;
19193;SDS011;9729;52.296;13.260;2023-03-01T00:24:14;23.37;;;9.97;;
19193;SDS011;9729;52.296;13.260;2023-03-01T00:26:40;23.03;;;10.07;;
19193;SDS011;9729;52.296;13.260;2023-03-01T00:29:08;23.40;;;10.13;;
19193;SDS011;9729;52.296;13.260;2023-03-01T00:31:34;25.63;;;10.30;;
19193;SDS011;9729;52.296;13.260;2023-03-01T00:34:02;26.70;;;10.13;;
19193;SDS011;9729;52.296;13.260;2023-03-01T00:36:30;33.93;;;11.13;;
19193;SDS011;9729;52.296;13.260;2023-03-01T00:38:57;22.43;;;8.90;;
19193;SDS011;9729;52.296;13.260;2023-03-01T00:41:24;27.47;;;10.07;;
19193;SDS011;9729;52.296;13.260;2023-03-01T00:43:51;21.37;;;9.70;;
19193;SDS011;9729;52.296;13.260;2023-03-01T00:46:20;24.10;;;9.80;;
19193;SDS011;9729;52.296;13.260;2023-03-01T00:48:48;21.83;;;9.77;;
19193;SDS011;9729;52.296;13.260;2023-03-01T00:51:15;23.53;;;11.10;;
19193;SDS011;9729;52.296;13.260;2023-03-01T00:53:43;19.77;;;10.83;;
19193;SDS011;9729;52.296;13.260;2023-03-01T00:56:11;24.73;;;10.67;;
19193;SDS011;9729;52.296;13.260;2023-03-01T00:58:38;28.10;;;9.87;;
19193;SDS011;9729;52.296;13.260;2023-03-01T01:01:08;22.47;;;11.57;;
19193;SDS011;9729;52.296;13.260;2023-03-01T01:03:43;20.93;;;10.37;;
19193;SDS011;9729;52.296;13.260;2023-03-01T01:06:14;23.20;;;10.13;;
19193;SDS011;9729;52.296;13.260;2023-03-01T01:08:41;22.77;;;9.83;;
19193;SDS011;9729;52.296;13.260;2023-03-01T01:11:08;15.97;;;9.67;;
19193;SDS011;9729;52.296;13.260;2023-03-01T01:13:35;23.87;;;9.87;;
19193;SDS011;9729;52.296;13.260;2023-03-01T01:16:01;21.37;;;11.27;;
19193;SDS011;9729;52.296;13.260;2023-03-01T01:18:28;18.73;;;10.27;;
19193;SDS011;9729;52.296;13.260;2023-03-01T01:20:56;23.57;;;9.40;;
19193;SDS011;9729;52.296;13.260;2023-03-01T01:23:22;21.47;;;9.23;;
19193;SDS011;9729;52.296;13.260;2023-03-01T01:25:49;22.50;;;10.40;;
19193;SDS011;9729;52.296;13.260;2023-03-01T01:28:15;18.63;;;9.83;;
19193;SDS011;9729;52.296;13.260;2023-03-01T01:30:42;17.23;;;8.70;;
19193;SDS011;9729;52.296;13.260;2023-03-01T01:33:08;20.83;;;10.23;;
19193;SDS011;9729;52.296;13.260;2023-03-01T01:35:35;19.27;;;9.90;;
19193;SDS011;9729;52.296;13.260;2023-03-01T01:38:02;23.10;;;10.33;;
19193;SDS011;9729;52.296;13.260;2023-03-01T01:40:28;20.00;;;10.13;;
19193;SDS011;9729;52.296;13.260;2023-03-01T01:42:55;21.70;;;11.07;;
19193;SDS011;9729;52.296;13.260;2023-03-01T01:45:25;20.13;;;10.13;;
19193;SDS011;9729;52.296;13.260;2023-03-01T01:47:54;19.77;;;9.33;;
19193;SDS011;9729;52.296;13.260;2023-03-01T01:50:23;20.67;;;10.13;;
19193;SDS011;9729;52.296;13.260;2023-03-01T01:52:49;25.63;;;10.20;;
19193;SDS011;9729;52.296;13.260;2023-03-01T01:55:18;20.83;;;9.43;;
19193;SDS011;9729;52.296;13.260;2023-03-01T01:57:47;24.37;;;10.10;;
19193;SDS011;9729;52.296;13.260;2023-03-01T02:00:16;23.27;;;9.80;;
19193;SDS011;9729;52.296;13.260;2023-03-01T02:02:44;19.57;;;10.10;;
19193;SDS011;9729;52.296;13.260;2023-03-01T02:05:13;19.37;;;10.17;;
19193;SDS011;9729;52.296;13.260;2023-03-01T02:07:42;24.93;;;11.63;;
19193;SDS011;9729;52.296;13.260;2023-03-01T02:10:09;19.33;;;10.37;;
19193;SDS011;9729;52.296;13.260;2023-03-01T02:12:37;18.43;;;10.30;;
19193;SDS011;9729;52.296;13.260;2023-03-01T02:15:05;23.47;;;9.90;;
19193;SDS011;9729;52.296;13.260;2023-03-01T02:17:31;19.50;;;10.43;;
19193;SDS011;9729;52.296;13.260;2023-03-01T02:20:04;20.60;;;9.53;;
19193;SDS011;9729;52.296;13.260;2023-03-01T02:22:37;22.40;;;10.30;;
19193;SDS011;9729;52.296;13.260;2023-03-01T02:25:07;23.50;;;10.10;;
19193;SDS011;9729;52.296;13.260;2023-03-01T02:27:44;21.83;;;11.57;;
19193;SDS011;9729;52.296;13.260;2023-03-01T02:30:18;24.30;;;11.10;;
19193;SDS011;9729;52.296;13.260;2023-03-01T02:32:44;24.50;;;10.67;;
19193;SDS011;9729;52.296;13.260;2023-03-01T02:35:10;20.80;;;11.33;;
19193;SDS011;9729;52.296;13.260;2023-03-01T02:37:38;24.23;;;10.93;;
19193;SDS011;9729;52.296;13.260;2023-03-01T02:40:06;19.57;;;10.47;;
19193;SDS011;9729;52.296;13.260;2023-03-01T02:42:36;28.27;;;10.33;;
19193;SDS011;9729;52.296;13.260;2023-03-01T02:45:09;23.03;;;10.17;;
19193;SDS011;9729;52.296;13.260;2023-03-01T02:47:37;21.67;;;11.07;;
19193;SDS011;9729;52.296;13.260;2023-03-01T02:50:09;27.37;;;11.23;;
19193;SDS011;9729;52.296;13.260;2023-03-01T02:52:41;25.70;;;10.60;;
19193;SDS011;9729;52.296;13.260;2023-03-01T02:55:12;25.83;;;11.40;;
19193;SDS011;9729;52.296;13.260;2023-03-01T02:57:40;24.43;;;11.30;;
19193;SDS011;9729;52.296;13.260;2023-03-01T03:00:09;20.07;;;10.77;;
19193;SDS011;9729;52.296;13.260;2023-03-01T03:02:45;31.30;;;11.13;;
19193;SDS011;9729;52.296;13.260;2023-03-01T03:05:13;25.90;;;11.13;;
19193;SDS011;9729;52.296;13.260;2023-03-01T03:07:41;20.47;;;10.90;;
19193;SDS011;9729;52.296;13.260;2023-03-01T03:10:10;24.10;;;11.27;;
19193;SDS011;9729;52.296;13.260;2023-03-01T03:12:37;21.03;;;11.03;;
19193;SDS011;9729;52.296;13.260;2023-03-01T03:15:04;23.00;;;11.20;;
19193;SDS011;9729;52.296;13.260;2023-03-01T03:17:33;27.10;;;11.30;;
19193;SDS011;9729;52.296;13.260;2023-03-01T03:20:02;22.63;;;11.50;;
19193;SDS011;9729;52.296;13.260;2023-03-01T03:22:29;20.50;;;11.47;;
19193;SDS011;9729;52.296;13.260;2023-03-01T03:24:55;18.23;;;10.47;;
19193;SDS011;9729;52.296;13.260;2023-03-01T03:27:22;23.20;;;11.20;;
19193;SDS011;9729;52.296;13.260;2023-03-01T03:29:49;17.90;;;11.03;;
19193;SDS011;9729;52.296;13.260;2023-03-01T03:32:15;25.70;;;11.03;;
19193;SDS011;9729;52.296;13.260;2023-03-01T03:34:42;25.97;;;11.07;;
19193;SDS011;9729;52.296;13.260;2023-03-01T03:37:10;21.67;;;11.40;;
19193;SDS011;9729;52.296;13.260;2023-03-01T03:39:56;21.67;;;10.87;;
19193;SDS011;9729;52.296;13.260;2023-03-01T03:42:22;23.50;;;12.60;;
19193;SDS011;9729;52.296;13.260;2023-03-01T03:44:49;25.77;;;12.17;;
19193;SDS011;9729;52.296;13.260;2023-03-01T03:47:15;19.47;;;10.03;;
19193;SDS011;9729;52.296;13.260;2023-03-01T03:49:41;24.37;;;11.07;;
19193;SDS011;9729;52.296;13.260;2023-03-01T03:52:09;28.33;;;12.17;;
19193;SDS011;9729;52.296;13.260;2023-03-01T03:54:38;25.83;;;11.83;;
19193;SDS011;9729;52.296;13.260;2023-03-01T03:57:04;25.40;;;12.17;;
19193;SDS011;9729;52.296;13.260;2023-03-01T03:59:31;26.60;;;11.83;;
19193;SDS011;9729;52.296;13.260;2023-03-01T04:01:57;31.10;;;11.93;;
19193;SDS011;9729;52.296;13.260;2023-03-01T04:04:24;21.67;;;11.10;;
19193;SDS011;9729;52.296;13.260;2023-03-01T04:06:50;27.50;;;11.83;;
19193;SDS011;9729;52.296;13.260;2023-03-01T04:09:18;21.67;;;11.03;;
19193;SDS011;9729;52.296;13.260;2023-03-01T04:11:44;24.03;;;12.30;;
19193;SDS011;9729;52.296;13.260;2023-03-01T04:14:10;27.97;;;12.57;;
19193;SDS011;9729;52.296;13.260;2023-03-01T04:16:37;23.77;;;12.17;;
19193;SDS011;9729;52.296;13.260;2023-03-01T04:19:04;26.27;;;14.07;;
19193;SDS011;9729;52.296;13.260;2023-03-01T04:21:31;24.10;;;12.87;;
19193;SDS011;9729;52.296;13.260;2023-03-01T04:23:57;20.90;;;12.37;;
19193;SDS011;9729;52.296;13.260;2023-03-01T04:26:25;38.47;;;13.83;;
19193;SDS011;9729;52.296;13.260;2023-03-01T04:28:51;31.10;;;15.57;;
19193;SDS011;9729;52.296;13.260;2023-03-01T04:31:18;27.43;;;16.30;;
19193;SDS011;9729;52.296;13.260;2023-03-01T04:33:46;27.93;;;14.27;;
19193;SDS011;9729;52.296;13.260;2023-03-01T04:36:14;30.80;;;15.20;;
19193;SDS011;9729;52.296;13.260;2023-03-01T04:38:41;35.67;;;14.67;;
19193;SDS011;9729;52.296;13.260;2023-03-01T04:41:12;27.70;;;14.07;;
19193;SDS011;9729;52.296;13.260;2023-03-01T04:43:40;29.57;;;12.90;;
19193;SDS011;9729;52.296;13.260;2023-03-01T04:46:07;27.40;;;13.30;;
19193;SDS011;9729;52.296;13.260;2023-03-01T04:48:35;27.67;;;13.17;;
19193;SDS011;9729;52.296;13.260;2023-03-01T04:51:02;27.97;;;12.67;;
19193;SDS011;9729;52.296;13.260;2023-03-01T04:53:29;27.70;;;11.90;;
19193;SDS011;9729;52.296;13.260;2023-03-01T04:55:56;26.30;;;12.63;;
19193;SDS011;9729;52.296;13.260;2023-03-01T04:58:22;22.67;;;11.60;;
19193;SDS011;9729;52.296;13.260;2023-03-01T05:00:50;22.43;;;12.37;;
19193;SDS011;9729;52.296;13.260;2023-03-01T05:03:17;27.03;;;11.40;;
19193;SDS011;9729;52.296;13.260;2023-03-01T05:05:44;23.93;;;12.80;;
19193;SDS011;9729;52.296;13.260;2023-03-01T05:08:14;21.30;;;11.40;;
19193;SDS011;9729;52.296;13.260;2023-03-01T05:10:44;21.27;;;11.47;;
19193;SDS011;9729;52.296;13.260;2023-03-01T05:13:12;23.53;;;11.90;;
19193;SDS011;9729;52.296;13.260;2023-03-01T05:15:40;27.10;;;12.93;;
19193;SDS011;9729;52.296;13.260;2023-03-01T05:18:07;28.37;;;13.03;;
19193;SDS011;9729;52.296;13.260;2023-03-01T05:20:36;24.00;;;11.07;;
19193;SDS011;9729;52.296;13.260;2023-03-01T05:23:03;25.90;;;12.60;;
19193;SDS011;9729;52.296;13.260;2023-03-01T05:25:30;26.77;;;13.17;;
19193;SDS011;9729;52.296;13.260;2023-03-01T05:27:57;25.87;;;12.33;;
19193;SDS011;9729;52.296;13.260;2023-03-01T05:30:24;22.00;;;12.60;;
19193;SDS011;9729;52.296;13.260;2023-03-01T05:32:52;25.30;;;12.67;;
19193;SDS011;9729;52.296;13.260;2023-03-01T05:35:21;24.27;;;11.90;;
19193;SDS011;9729;52.296;13.260;2023-03-01T05:37:48;32.33;;;12.20;;
19193;SDS011;9729;52.296;13.260;2023-03-01T05:40:15;30.63;;;13.07;;
19193;SDS011;9729;52.296;13.260;2023-03-01T05:42:45;30.40;;;12.60;;
19193;SDS011;9729;52.296;13.260;2023-03-01T05:45:13;22.67;;;11.43;;
19193;SDS011;9729;52.296;13.260;2023-03-01T05:47:40;25.53;;;13.53;;
19193;SDS011;9729;52.296;13.260;2023-03-01T05:50:10;25.97;;;12.57;;
19193;SDS011;9729;52.296;13.260;2023-03-01T05:52:38;28.03;;;12.87;;
19193;SDS011;9729;52.296;13.260;2023-03-01T05:55:05;29.37;;;13.60;;
19193;SDS011;9729;52.296;13.260;2023-03-01T05:57:32;32.50;;;12.20;;
19193;SDS011;9729;52.296;13.260;2023-03-01T05:59:58;25.87;;;13.50;;
19193;SDS011;9729;52.296;13.260;2023-03-01T06:02:25;31.67;;;13.23;;
19193;SDS011;9729;52.296;13.260;2023-03-01T06:04:52;25.33;;;13.07;;
19193;SDS011;9729;52.296;13.260;2023-03-01T06:07:18;25.33;;;11.97;;
19193;SDS011;9729;52.296;13.260;2023-03-01T06:09:46;35.83;;;12.03;;
19193;SDS011;9729;52.296;13.260;2023-03-01T06:12:12;25.13;;;12.80;;
19193;SDS011;9729;52.296;13.260;2023-03-01T06:14:38;19.13;;;11.70;;
19193;SDS011;9729;52.296;13.260;2023-03-01T06:17:05;22.93;;;12.27;;
19193;SDS011;9729;52.296;13.260;2023-03-01T06:19:32;22.90;;;11.37;;
19193;SDS011;9729;52.296;13.260;2023-03-01T06:21:59;26.87;;;12.50;;
19193;SDS011;9729;52.296;13.260;2023-03-01T06:24:25;26.00;;;12.50;;
19193;SDS011;9729;52.296;13.260;2023-03-01T06:26:55;23.90;;;12.47;;
19193;SDS011;9729;52.296;13.260;2023-03-01T06:29:21;24.30;;;12.93;;
19193;SDS011;9729;52.296;13.260;2023-03-01T06:31:48;21.83;;;12.43;;
19193;SDS011;9729;52.296;13.260;2023-03-01T06:34:14;31.37;;;14.40;;
19193;SDS011;9729;52.296;13.260;2023-03-01T06:36:41;29.07;;;13.90;;
19193;SDS011;9729;52.296;13.260;2023-03-01T06:39:07;25.33;;;12.90;;
19193;SDS011;9729;52.296;13.260;2023-03-01T06:41:34;30.03;;;12.00;;
19193;SDS011;9729;52.296;13.260;2023-03-01T06:44:02;35.07;;;13.67;;
19193;SDS011;9729;52.296;13.260;2023-03-01T06:46:28;30.93;;;13.17;;
19193;SDS011;9729;52.296;13.260;2023-03-01T06:48:56;25.00;;;13.50;;
19193;SDS011;9729;52.296;13.260;2023-03-01T06:51:23;26.00;;;13.57;;
19193;SDS011;9729;52.296;13.260;2023-03-01T06:53:50;26.93;;;12.67;;
19193;SDS011;9729;52.296;13.260;2023-03-01T06:56:16;21.27;;;12.47;;
19193;SDS011;9729;52.296;13.260;2023-03-01T06:58:43;32.43;;;12.50;;
19193;SDS011;9729;52.296;13.260;2023-03-01T07:01:11;28.93;;;12.73;;
19193;SDS011;9729;52.296;13.260;2023-03-01T07:03:37;26.70;;;12.80;;
19193;SDS011;9729;52.296;13.260;2023-03-01T07:06:04;22.70;;;12.27;;
19193;SDS011;9729;52.296;13.260;2023-03-01T07:08:31;29.63;;;15.50;;
19193;SDS011;9729;52.296;13.260;2023-03-01T07:10:57;32.63;;;15.00;;
19193;SDS011;9729;52.296;13.260;2023-03-01T07:13:24;29.13;;;13.63;;
19193;SDS011;9729;52.296;13.260;2023-03-01T07:15:50;32.07;;;15.27;;
19193;SDS011;9729;52.296;13.260;2023-03-01T07:18:18;28.80;;;14.30;;
19193;SDS011;9729;52.296;13.260;2023-03-01T07:20:45;31.33;;;15.50;;
19193;SDS011;9729;52.296;13.260;2023-03-01T07:23:11;32.30;;;15.43;;
19193;SDS011;9729;52.296;13.260;2023-03-01T07:25:38;29.07;;;13.80;;
19193;SDS011;9729;52.296;13.260;2023-03-01T07:28:04;30.93;;;15.87;;
19193;SDS011;9729;52.296;13.260;2023-03-01T07:30:30;37.23;;;17.30;;
19193;SDS011;9729;52.296;13.260;2023-03-01T07:32:58;42.93;;;17.27;;
19193;SDS011;9729;52.296;13.260;2023-03-01T07:35:26;32.87;;;17.40;;
19193;SDS011;9729;52.296;13.260;2023-03-01T07:37:53;33.33;;;17.07;;
19193;SDS011;9729;52.296;13.260;2023-03-01T07:40:20;34.10;;;17.40;;
19193;SDS011;9729;52.296;13.260;2023-03-01T07:42:48;34.03;;;16.83;;
19193;SDS011;9729;52.296;13.260;2023-03-01T07:45:14;35.03;;;18.43;;
19193;SDS011;9729;52.296;13.260;2023-03-01T07:47:40;36.50;;;16.27;;
19193;SDS011;9729;52.296;13.260;2023-03-01T07:50:07;32.07;;;17.00;;
19193;SDS011;9729;52.296;13.260;2023-03-01T07:52:38;38.10;;;18.03;;
19193;SDS011;9729;52.296;13.260;2023-03-01T07:55:05;32.93;;;18.53;;
19193;SDS011;9729;52.296;13.260;2023-03-01T07:57:32;30.03;;;17.60;;
19193;SDS011;9729;52.296;13.260;2023-03-01T07:59:58;30.73;;;17.77;;
19193;SDS011;9729;52.296;13.260;2023-03-01T08:02:24;34.43;;;17.07;;
19193;SDS011;9729;52.296;13.260;2023-03-01T08:04:51;41.67;;;18.33;;
19193;SDS011;9729;52.296;13.260;2023-03-01T08:07:17;47.90;;;21.60;;
19193;SDS011;9729;52.296;13.260;2023-03-01T08:09:45;35.77;;;16.97;;
19193;SDS011;9729;52.296;13.260;2023-03-01T08:12:11;39.10;;;15.10;;
19193;SDS011;9729;52.296;13.260;2023-03-01T08:14:38;38.67;;;17.03;;
19193;SDS011;9729;52.296;13.260;2023-03-01T08:17:07;34.10;;;13.83;;
19193;SDS011;9729;52.296;13.260;2023-03-01T08:19:33;31.47;;;14.67;;
19193;SDS011;9729;52.296;13.260;2023-03-01T08:22:00;31.83;;;14.30;;
19193;SDS011;9729;52.296;13.260;2023-03-01T08:24:27;31.60;;;14.30;;
19193;SDS011;9729;52.296;13.260;2023-03-01T08:26:55;34.43;;;14.10;;
19193;SDS011;9729;52.296;13.260;2023-03-01T08:29:21;30.23;;;14.67;;
19193;SDS011;9729;52.296;13.260;2023-03-01T08:31:49;28.30;;;15.10;;
19193;SDS011;9729;52.296;13.260;2023-03-01T08:34:16;30.00;;;16.53;;
19193;SDS011;9729;52.296;13.260;2023-03-01T08:36:43;32.07;;;15.03;;
19193;SDS011;9729;52.296;13.260;2023-03-01T08:39:11;27.67;;;12.73;;
19193;SDS011;9729;52.296;13.260;2023-03-01T08:41:39;25.93;;;14.37;;
19193;SDS011;9729;52.296;13.260;2023-03-01T08:44:07;27.67;;;13.87;;
19193;SDS011;9729;52.296;13.260;2023-03-01T08:46:35;21.33;;;11.10;;
19193;SDS011;9729;52.296;13.260;2023-03-01T08:49:03;28.10;;;11.10;;
19193;SDS011;9729;52.296;13.260;2023-03-01T08:51:30;26.23;;;12.03;;
19193;SDS011;9729;52.296;13.260;2023-03-01T08:53:57;30.33;;;12.20;;
19193;SDS011;9729;52.296;13.260;2023-03-01T08:56:24;26.90;;;12.23;;
19193;SDS011;9729;52.296;13.260;2023-03-01T08:58:50;30.93;;;14.87;;
19193;SDS011;9729;52.296;13.260;2023-03-01T09:01:19;28.23;;;12.70;;
19193;SDS011;9729;52.296;13.260;2023-03-01T09:03:46;21.23;;;11.60;;
19193;SDS011;9729;52.296;13.260;2023-03-01T09:06:13;26.03;;;11.10;;
19193;SDS011;9729;52.296;13.260;2023-03-01T09:08:41;29.27;;;14.33;;
19193;SDS011;9729;52.296;13.260;2023-03-01T09:11:09;35.73;;;13.40;;
19193;SDS011;9729;52.296;13.260;2023-03-01T09:13:37;33.33;;;11.63;;
19193;SDS011;9729;52.296;13.260;2023-03-01T09:16:04;23.33;;;11.00;;
19193;SDS011;9729;52.296;13.260;2023-03-01T09:18:34;24.20;;;11.70;;
19193;SDS011;9729;52.296;13.260;2023-03-01T09:21:02;27.67;;;12.27;;
19193;SDS011;9729;52.296;13.260;2023-03-01T09:23:31;24.00;;;12.60;;
19193;SDS011;9729;52.296;13.260;2023-03-01T09:25:58;33.87;;;11.60;;
19193;SDS011;9729;52.296;13.260;2023-03-01T09:28:24;23.00;;;11.97;;
19193;SDS011;9729;52.296;13.260;2023-03-01T09:30:51;21.07;;;9.03;;
19193;SDS011;9729;52.296;13.260;2023-03-01T09:33:17;25.30;;;11.87;;
19193;SDS011;9729;52.296;13.260;2023-03-01T09:35:45;23.47;;;10.73;;
19193;SDS011;9729;52.296;13.260;2023-03-01T09:38:12;21.60;;;10.63;;
19193;SDS011;9729;52.296;13.260;2023-03-01T09:40:41;18.73;;;10.97;;
19193;SDS011;9729;52.296;13.260;2023-03-01T09:43:13;15.60;;;9.90;;
19193;SDS011;9729;52.296;13.260;2023-03-01T09:45:44;20.47;;;10.57;;
19193;SDS011;9729;52.296;13.260;2023-03-01T09:48:12;21.07;;;10.60;;
19193;SDS011;9729;52.296;13.260;2023-03-01T09:50:42;19.97;;;9.73;;
19193;SDS011;9729;52.296;13.260;2023-03-01T09:53:13;20.63;;;10.50;;
19193;SDS011;9729;52.296;13.260;2023-03-01T09:55:43;17.60;;;8.93;;
19193;SDS011;9729;52.296;13.260;2023-03-01T09:58:25;15.33;;;7.80;;
19193;SDS011;9729;52.296;13.260;2023-03-01T10:00:59;12.47;;;6.70;;
19193;SDS011;9729;52.296;13.260;2023-03-01T10:03:30;13.23;;;7.80;;
19193;SDS011;9729;52.296;13.260;2023-03-01T10:06:04;14.07;;;7.70;;
19193;SDS011;9729;52.296;13.260;2023-03-01T10:08:34;16.03;;;8.53;;
19193;SDS011;9729;52.296;13.260;2023-03-01T10:11:04;16.30;;;6.70;;
19193;SDS011;9729;52.296;13.260;2023-03-01T10:13:33;11.73;;;7.80;;
19193;SDS011;9729;52.296;13.260;2023-03-01T10:16:06;15.57;;;7.73;;
19193;SDS011;9729;52.296;13.260;2023-03-01T10:18:38;15.20;;;7.83;;
19193;SDS011;9729;52.296;13.260;2023-03-01T10:21:09;14.53;;;7.37;;
19193;SDS011;9729;52.296;13.260;2023-03-01T10:23:39;15.13;;;7.37;;
19193;SDS011;9729;52.296;13.260;2023-03-01T10:26:08;15.03;;;7.83;;
19193;SDS011;9729;52.296;13.260;2023-03-01T10:28:44;12.63;;;7.70;;
19193;SDS011;9729;52.296;13.260;2023-03-01T10:31:18;14.23;;;7.27;;
19193;SDS011;9729;52.296;13.260;2023-03-01T10:33:47;14.30;;;7.70;;
19193;SDS011;9729;52.296;13.260;2023-03-01T10:36:19;13.20;;;7.57;;
19193;SDS011;9729;52.296;13.260;2023-03-01T10:38:47;18.93;;;6.87;;
19193;SDS011;9729;52.296;13.260;2023-03-01T10:41:17;10.90;;;6.73;;
19193;SDS011;9729;52.296;13.260;2023-03-01T10:43:44;12.53;;;6.33;;
19193;SDS011;9729;52.296;13.260;2023-03-01T10:46:24;13.20;;;6.40;;
19193;SDS011;9729;52.296;13.260;2023-03-01T10:49:05;12.07;;;7.47;;
19193;SDS011;9729;52.296;13.260;2023-03-01T10:51:34;13.00;;;6.17;;
19193;SDS011;9729;52.296;13.260;2023-03-01T10:54:05;12.30;;;5.50;;
19193;SDS011;9729;52.296;13.260;2023-03-01T10:56:45;12.43;;;5.43;;
19193;SDS011;9729;52.296;13.260;2023-03-01T10:59:19;10.50;;;5.83;;
19193;SDS011;9729;52.296;13.260;2023-03-01T11:01:49;11.47;;;6.27;;
19193;SDS011;9729;52.296;13.260;2023-03-01T11:04:28;10.10;;;6.07;;
19193;SDS011;9729;52.296;13.260;2023-03-01T11:06:59;11.73;;;5.87;;
19193;SDS011;9729;52.296;13.260;2023-03-01T11:09:26;9.20;;;6.10;;
19193;SDS011;9729;52.296;13.260;2023-03-01T11:12:03;12.93;;;6.40;;
19193;SDS011;9729;52.296;13.260;2023-03-01T11:14:32;9.00;;;5.27;;
19193;SDS011;9729;52.296;13.260;2023-03-01T11:17:02;11.00;;;6.17;;
19193;SDS011;9729;52.296;13.260;2023-03-01T11:19:31;11.97;;;6.17;;
19193;SDS011;9729;52.296;13.260;2023-03-01T11:22:01;9.57;;;5.30;;
19193;SDS011;9729;52.296;13.260;2023-03-01T11:24:31;8.70;;;4.87;;
19193;SDS011;9729;52.296;13.260;2023-03-01T11:27:02;11.53;;;5.93;;
19193;SDS011;9729;52.296;13.260;2023-03-01T11:29:32;11.50;;;4.70;;
19193;SDS011;9729;52.296;13.260;2023-03-01T11:32:02;9.13;;;5.10;;
19193;SDS011;9729;52.296;13.260;2023-03-01T11:34:38;11.97;;;4.83;;
19193;SDS011;9729;52.296;13.260;2023-03-01T11:37:12;6.90;;;4.00;;
19193;SDS011;9729;52.296;13.260;2023-03-01T11:39:51;11.40;;;5.20;;
19193;SDS011;9729;52.296;13.260;2023-03-01T11:42:22;10.17;;;4.73;;
19193;SDS011;9729;52.296;13.260;2023-03-01T11:44:54;7.27;;;4.77;;
19193;SDS011;9729;52.296;13.260;2023-03-01T11:47:28;9.70;;;4.93;;
19193;SDS011;9729;52.296;13.260;2023-03-01T11:50:12;10.47;;;5.27;;
19193;SDS011;9729;52.296;13.260;2023-03-01T11:52:46;11.33;;;6.07;;
19193;SDS011;9729;52.296;13.260;2023-03-01T11:55:21;7.83;;;5.47;;
19193;SDS011;9729;52.296;13.260;2023-03-01T11:58:03;9.30;;;5.00;;
19193;SDS011;9729;52.296;13.260;2023-03-01T12:00:41;11.87;;;6.77;;
19193;SDS011;9729;52.296;13.260;2023-03-01T12:03:22;15.83;;;6.70;;
19193;SDS011;9729;52.296;13.260;2023-03-01T12:08:41;12.57;;;7.33;;
19193;SDS011;9729;52.296;13.260;2023-03-01T12:11:12;15.33;;;7.40;;
19193;SDS011;9729;52.296;13.260;2023-03-01T12:13:56;14.00;;;5.77;;
19193;SDS011;9729;52.296;13.260;2023-03-01T12:16:35;7.07;;;4.67;;
19193;SDS011;9729;52.296;13.260;2023-03-01T12:19:11;9.27;;;5.20;;
19193;SDS011;9729;52.296;13.260;2023-03-01T12:21:48;13.27;;;6.57;;
19193;SDS011;9729;52.296;13.260;2023-03-01T12:27:18;11.37;;;5.63;;
19193;SDS011;9729;52.296;13.260;2023-03-01T12:29:51;14.47;;;8.10;;
19193;SDS011;9729;52.296;13.260;2023-03-01T12:32:36;12.77;;;7.70;;
19193;SDS011;9729;52.296;13.260;2023-03-01T12:35:20;12.83;;;6.70;;
19193;SDS011;9729;52.296;13.260;2023-03-01T12:37:54;15.53;;;7.63;;
19193;SDS011;9729;52.296;13.260;2023-03-01T12:43:34;17.50;;;7.63;;
19193;SDS011;9729;52.296;13.260;2023-03-01T12:46:17;14.77;;;6.67;;
19193;SDS011;9729;52.296;13.260;2023-03-01T12:48:49;19.60;;;7.50;;
19193;SDS011;9729;52.296;13.260;2023-03-01T12:51:20;16.57;;;7.87;;
19193;SDS011;9729;52.296;13.260;2023-03-01T12:53:51;11.40;;;6.87;;
19193;SDS011;9729;52.296;13.260;2023-03-01T12:56:21;11.97;;;7.23;;
19193;SDS011;9729;52.296;13.260;2023-03-01T12:58:51;15.83;;;7.60;;
19193;SDS011;9729;52.296;13.260;2023-03-01T13:01:26;13.47;;;6.57;;
19193;SDS011;9729;52.296;13.260;2023-03-01T13:04:02;9.40;;;6.33;;
19193;SDS011;9729;52.296;13.260;2023-03-01T13:06:38;19.53;;;7.47;;
19193;SDS011;9729;52.296;13.260;2023-03-01T13:09:09;13.43;;;7.60;;
19193;SDS011;9729;52.296;13.260;2023-03-01T13:11:42;13.63;;;7.60;;
19193;SDS011;9729;52.296;13.260;2023-03-01T13:17:04;13.27;;;7.30;;
19193;SDS011;9729;52.296;13.260;2023-03-01T13:19:30;16.03;;;8.07;;
19193;SDS011;9729;52.296;13.260;2023-03-01T13:21:57;22.00;;;10.57;;
19193;SDS011;9729;52.296;13.260;2023-03-01T13:24:27;11.00;;;7.20;;
19193;SDS011;9729;52.296;13.260;2023-03-01T13:27:20;15.83;;;7.97;;
19193;SDS011;9729;52.296;13.260;2023-03-01T13:29:54;14.30;;;7.63;;
19193;SDS011;9729;52.296;13.260;2023-03-01T13:32:22;16.73;;;8.37;;
19193;SDS011;9729;52.296;13.260;2023-03-01T13:34:52;17.27;;;7.77;;
19193;SDS011;9729;52.296;13.260;2023-03-01T13:37:24;15.17;;;7.30;;
19193;SDS011;9729;52.296;13.260;2023-03-01T13:39:54;11.73;;;7.53;;
19193;SDS011;9729;52.296;13.260;2023-03-01T13:42:34;16.40;;;7.93;;
19193;SDS011;9729;52.296;13.260;2023-03-01T13:45:17;14.73;;;7.50;;
19193;SDS011;9729;52.296;13.260;2023-03-01T13:47:49;12.37;;;6.57;;
19193;SDS011;9729;52.296;13.260;2023-03-01T13:50:19;11.07;;;7.40;;
19193;SDS011;9729;52.296;13.260;2023-03-01T13:52:48;14.50;;;7.47;;
19193;SDS011;9729;52.296;13.260;2023-03-01T13:55:18;17.27;;;7.43;;
19193;SDS011;9729;52.296;13.260;2023-03-01T13:57:48;11.10;;;6.87;;
19193;SDS011;9729;52.296;13.260;2023-03-01T14:00:28;16.13;;;7.53;;
19193;SDS011;9729;52.296;13.260;2023-03-01T14:03:03;14.07;;;7.03;;
19193;SDS011;9729;52.296;13.260;2023-03-01T14:05:37;15.03;;;6.90;;
19193;SDS011;9729;52.296;13.260;2023-03-01T14:08:04;15.03;;;6.30;;
19193;SDS011;9729;52.296;13.260;2023-03-01T14:10:32;14.47;;;7.00;;
19193;SDS011;9729;52.296;13.260;2023-03-01T14:13:06;13.30;;;7.70;;
19193;SDS011;9729;52.296;13.260;2023-03-01T14:15:45;11.10;;;6.80;;
19193;SDS011;9729;52.296;13.260;2023-03-01T14:18:17;15.23;;;7.40;;
19193;SDS011;9729;52.296;13.260;2023-03-01T14:20:46;14.07;;;7.33;;
19193;SDS011;9729;52.296;13.260;2023-03-01T14:23:17;11.10;;;6.63;;
19193;SDS011;9729;52.296;13.260;2023-03-01T14:25:46;14.30;;;7.13;;
19193;SDS011;9729;52.296;13.260;2023-03-01T14:28:16;15.77;;;5.67;;
19193;SDS011;9729;52.296;13.260;2023-03-01T14:30:44;9.93;;;5.37;;
19193;SDS011;9729;52.296;13.260;2023-03-01T14:33:19;9.63;;;5.80;;
19193;SDS011;9729;52.296;13.260;2023-03-01T14:35:52;14.97;;;6.80;;
19193;SDS011;9729;52.296;13.260;2023-03-01T14:38:20;14.00;;;7.10;;
19193;SDS011;9729;52.296;13.260;2023-03-01T14:40:46;12.87;;;6.43;;
19193;SDS011;9729;52.296;13.260;2023-03-01T14:43:18;12.90;;;6.33;;
19193;SDS011;9729;52.296;13.260;2023-03-01T14:45:47;15.70;;;7.00;;
19193;SDS011;9729;52.296;13.260;2023-03-01T14:48:14;10.63;;;5.53;;
19193;SDS011;9729;52.296;13.260;2023-03-01T14:50:41;13.90;;;6.43;;